KALM

Alamogordo-White Sands Regional Airport

Alamogordo, New Mexico, USA
METAR KALM 190715Z AUTO 05003KT 10SM CLR 25/08 A3008 RMK AO2
Observed Flight Rules
Jul-19 @ 07:15 UTC (19 minutes ago) Visual Flight Rules
Wind Visibility Clouds
50° at 3 knots 10 miles
  • Clear skies
Temperatures Readings
Current 25°C / 77°F
Dewpoint 8°C / 46°F
Humidity 34%
Altimeter 30.08" Hg
Pressure 1019 hPa
Elevation 1279
METAR KALM 190715Z AUTO 05003KT 10SM CLR 25/08 A3008 RMK AO2
Observed Flight Rules
Jul-19 @ 07:15 UTC
(19 minutes ago)
VFR
Wind Visibility
50° at 3 knots 10 miles
Clouds
  • Clear skies
Temperature Dewpoint
25°C / 77°F 8°C / 46°F
Humidity Altimeter Pressure
34% 30.08" Hg 1019 hPa